Time;durP1;ratioP1;P1;durP2;ratioP2;P2;SDS_P1;SDS_P2;PMS_P1;PMS_P2;Temp;Humidity;BMP_temperature;BMP_pressure;BME280_temperature;BME280_humidity;BME280_pressure;Samples;Min_cycle;Max_cycle;Signal;HPM_P1;HPM_P2
2023/04/11 00:02:11;;;;;;;102.28;54.85;;;16.20;76.90;;;;;;4968681;28;90472;-46
2023/04/11 00:04:37;;;;;;;103.63;54.97;;;16.10;76.70;;;;;;4980183;28;89496;-52
2023/04/11 00:07:04;;;;;;;100.15;54.50;;;16.20;76.80;;;;;;4980374;28;89523;-49
2023/04/11 00:09:30;;;;;;;101.25;54.47;;;16.10;76.50;;;;;;4981903;28;90116;-51
2023/04/11 00:11:56;;;;;;;102.72;54.30;;;16.10;76.50;;;;;;4983429;28;89838;-46
2023/04/11 00:14:23;;;;;;;100.80;53.40;;;16.10;76.60;;;;;;4966786;28;89106;-50
2023/04/11 00:16:52;;;;;;;99.75;53.70;;;16.10;76.40;;;;;;4979786;28;90027;-51
2023/04/11 00:19:22;;;;;;;104.90;54.08;;;16.10;76.50;;;;;;4982630;28;89596;-51
2023/04/11 00:21:48;;;;;;;104.78;54.50;;;16.10;76.30;;;;;;4974778;28;91474;-50
2023/04/11 00:24:14;;;;;;;104.63;54.85;;;16.10;76.50;;;;;;4981626;28;90539;-50
2023/04/11 00:26:40;;;;;;;101.22;54.42;;;16.10;76.40;;;;;;4982365;28;89475;-52
2023/04/11 00:29:05;;;;;;;103.95;54.20;;;16.00;76.20;;;;;;4981421;28;89628;-51
2023/04/11 00:31:31;;;;;;;99.68;53.80;;;16.00;76.10;;;;;;4979969;28;89506;-50
2023/04/11 00:33:57;;;;;;;103.63;54.40;;;16.00;76.20;;;;;;4981208;28;90606;-52
2023/04/11 00:36:22;;;;;;;103.00;54.03;;;16.00;76.10;;;;;;4979634;28;89479;-53
2023/04/11 00:38:48;;;;;;;103.13;53.85;;;16.00;76.10;;;;;;4985058;28;88595;-53
2023/04/11 00:41:14;;;;;;;99.43;53.83;;;16.00;76.30;;;;;;4980638;28;89941;-52
2023/04/11 00:43:40;;;;;;;100.97;54.22;;;16.00;76.00;;;;;;4974119;28;90634;-51
2023/04/11 00:46:07;;;;;;;101.75;54.58;;;16.00;76.40;;;;;;4979715;28;91123;-52
2023/04/11 00:48:34;;;;;;;102.05;54.40;;;16.00;76.10;;;;;;4979089;28;89460;-53
2023/04/11 00:51:01;;;;;;;105.60;54.55;;;15.90;76.10;;;;;;4984574;28;90251;-51
2023/04/11 00:53:31;;;;;;;101.63;54.17;;;15.90;76.00;;;;;;4964246;28;90004;-53
2023/04/11 00:56:00;;;;;;;101.28;54.00;;;15.90;75.90;;;;;;4977443;28;90799;-49
2023/04/11 00:58:27;;;;;;;102.45;53.95;;;15.90;75.90;;;;;;4981303;28;89306;-50
2023/04/11 01:00:53;;;;;;;103.70;54.28;;;15.90;76.10;;;;;;4981927;28;90498;-52
2023/04/11 01:03:20;;;;;;;99.65;53.78;;;15.90;75.80;;;;;;4975772;28;91680;-52
2023/04/11 01:05:47;;;;;;;100.00;53.40;;;15.90;75.80;;;;;;4980459;28;89519;-50
2023/04/11 01:08:14;;;;;;;101.03;54.67;;;15.90;76.00;;;;;;4964120;28;89580;-49
2023/04/11 01:10:41;;;;;;;100.55;54.10;;;15.90;75.90;;;;;;4981324;28;91577;-54
2023/04/11 01:13:08;;;;;;;103.05;54.67;;;15.90;75.80;;;;;;4967500;28;89743;-53
2023/04/11 01:15:34;;;;;;;100.47;54.00;;;15.90;75.70;;;;;;4982382;28;89720;-50
2023/04/11 01:18:00;;;;;;;102.22;53.97;;;15.80;75.90;;;;;;4981921;28;89809;-53
2023/04/11 01:20:27;;;;;;;102.15;54.17;;;15.80;75.80;;;;;;4957396;28;89555;-52
2023/04/11 01:22:56;;;;;;;101.22;54.25;;;15.80;75.80;;;;;;4964534;28;90936;-50
2023/04/11 01:25:22;;;;;;;100.43;54.30;;;15.80;75.80;;;;;;4978659;28;89618;-50
2023/04/11 01:27:48;;;;;;;101.45;54.28;;;15.80;75.60;;;;;;4964066;28;88892;-52
2023/04/11 01:30:15;;;;;;;100.40;54.25;;;15.80;75.80;;;;;;4977245;28;89739;-48
2023/04/11 01:32:41;;;;;;;102.70;54.50;;;15.80;75.80;;;;;;4979601;28;89433;-49
2023/04/11 01:35:09;;;;;;;102.45;54.33;;;15.80;75.60;;;;;;4957364;28;90540;-50
2023/04/11 01:37:35;;;;;;;99.40;53.75;;;15.70;75.70;;;;;;4979074;28;90172;-50
2023/04/11 01:40:01;;;;;;;101.40;54.40;;;15.70;75.70;;;;;;4977630;28;90549;-47
2023/04/11 01:42:28;;;;;;;102.78;54.20;;;15.70;75.60;;;;;;4980371;28;89543;-49
2023/04/11 01:44:55;;;;;;;99.80;54.10;;;15.70;75.90;;;;;;4960440;28;89378;-51
2023/04/11 01:47:21;;;;;;;100.75;53.85;;;15.70;75.70;;;;;;4976288;28;90403;-48
2023/04/11 01:49:47;;;;;;;99.72;53.58;;;15.70;75.70;;;;;;4980675;28;89655;-50
2023/04/11 01:52:13;;;;;;;99.35;54.28;;;15.70;75.70;;;;;;4979680;28;89330;-49
2023/04/11 01:54:39;;;;;;;100.05;53.45;;;15.70;75.60;;;;;;4976951;28;89590;-47
2023/04/11 01:57:05;;;;;;;100.68;53.85;;;15.70;75.70;;;;;;4981822;28;89761;-50
2023/04/11 01:59:31;;;;;;;101.25;54.10;;;15.60;75.60;;;;;;4979217;28;90902;-48
2023/04/11 02:01:57;;;;;;;100.45;53.95;;;15.70;75.80;;;;;;4979217;28;89964;-48
2023/04/11 02:04:22;;;;;;;100.15;54.05;;;15.70;75.60;;;;;;4979885;28;89926;-51
2023/04/11 02:06:48;;;;;;;100.93;54.00;;;15.60;75.70;;;;;;4978197;28;90100;-49
2023/04/11 02:09:15;;;;;;;99.65;54.17;;;15.60;75.60;;;;;;4985850;28;90227;-54
2023/04/11 02:11:41;;;;;;;101.35;54.25;;;15.60;75.20;;;;;;4981430;28;89698;-51
2023/04/11 02:14:08;;;;;;;103.30;54.13;;;15.60;75.40;;;;;;4982423;28;89418;-50
2023/04/11 02:16:47;;;;;;;98.72;54.08;;;15.60;75.50;;;;;;4980129;28;88579;-48
2023/04/11 02:19:13;;;;;;;101.28;54.05;;;15.60;76.20;;;;;;4980926;28;90348;-50
2023/04/11 02:21:38;;;;;;;100.30;54.28;;;15.60;75.50;;;;;;4972161;28;90671;-48
2023/04/11 02:24:04;;;;;;;102.28;54.08;;;15.60;75.40;;;;;;4987254;28;90406;-51
2023/04/11 02:26:30;;;;;;;99.88;54.15;;;15.50;75.50;;;;;;4981834;28;91574;-49
2023/04/11 02:28:55;;;;;;;99.15;54.08;;;15.60;75.30;;;;;;4982505;28;90711;-48
2023/04/11 02:31:21;;;;;;;104.00;54.08;;;15.60;75.30;;;;;;4973233;28;91738;-47
2023/04/11 02:33:46;;;;;;;100.00;53.65;;;15.50;75.50;;;;;;4962224;28;90387;-50
2023/04/11 02:36:12;;;;;;;101.45;54.13;;;15.50;75.40;;;;;;4983811;28;89499;-49
2023/04/11 02:38:38;;;;;;;100.45;54.22;;;15.50;75.40;;;;;;4984733;28;92334;-46
2023/04/11 02:41:04;;;;;;;99.85;54.10;;;15.50;75.40;;;;;;4973736;28;91977;-51
2023/04/11 02:43:30;;;;;;;101.07;54.38;;;15.50;75.50;;;;;;4978231;28;89460;-47
2023/04/11 02:45:56;;;;;;;101.25;54.05;;;15.50;75.50;;;;;;4981781;28;92537;-51
2023/04/11 02:48:21;;;;;;;100.07;54.20;;;15.50;75.40;;;;;;4975526;28;92027;-51
2023/04/11 02:50:47;;;;;;;101.30;53.83;;;15.50;75.40;;;;;;4980233;28;90782;-52
2023/04/11 02:53:15;;;;;;;98.60;53.50;;;15.50;75.50;;;;;;4980803;28;89713;-50
2023/04/11 02:55:40;;;;;;;99.35;53.95;;;15.40;75.40;;;;;;4964598;28;89481;-48
2023/04/11 02:58:06;;;;;;;101.05;53.80;;;15.40;75.50;;;;;;4981303;28;90287;-48
2023/04/11 03:00:32;;;;;;;100.20;54.22;;;15.40;75.40;;;;;;4979554;28;89491;-48
2023/04/11 03:02:57;;;;;;;100.68;53.97;;;15.40;75.40;;;;;;4980918;28;89564;-50
2023/04/11 03:05:23;;;;;;;99.85;53.72;;;15.40;75.40;;;;;;4979871;28;88559;-50
2023/04/11 03:07:49;;;;;;;101.53;54.03;;;15.40;75.90;;;;;;4981818;28;90001;-50
2023/04/11 03:10:15;;;;;;;100.38;54.05;;;15.40;75.40;;;;;;4983792;28;91107;-49
2023/04/11 03:12:41;;;;;;;100.53;53.80;;;15.40;75.30;;;;;;4980775;28;90795;-49
2023/04/11 03:15:07;;;;;;;99.88;53.33;;;15.40;75.40;;;;;;4982319;28;89436;-53
2023/04/11 03:17:32;;;;;;;99.55;53.42;;;15.40;75.40;;;;;;4981458;28;90055;-52
2023/04/11 03:19:58;;;;;;;102.00;53.92;;;15.40;75.40;;;;;;4982179;28;89949;-54
2023/04/11 03:22:24;;;;;;;100.60;54.33;;;15.30;75.30;;;;;;4982929;28;90379;-51
2023/04/11 03:24:50;;;;;;;100.82;53.97;;;15.40;75.50;;;;;;4984612;28;89854;-54
2023/04/11 03:27:15;;;;;;;100.43;53.65;;;15.30;75.20;;;;;;4987322;28;90463;-50
2023/04/11 03:29:41;;;;;;;98.88;54.17;;;15.30;75.20;;;;;;4977763;28;88949;-50
2023/04/11 03:32:06;;;;;;;101.03;54.13;;;15.30;75.20;;;;;;4979105;28;89399;-51
2023/04/11 03:34:32;;;;;;;99.13;53.95;;;15.30;75.30;;;;;;4982395;28;90205;-48
2023/04/11 03:36:58;;;;;;;99.43;54.00;;;15.30;75.30;;;;;;4980695;28;93466;-50
2023/04/11 03:39:24;;;;;;;102.35;53.85;;;15.30;75.30;;;;;;4982802;28;91690;-50
2023/04/11 03:41:50;;;;;;;98.63;53.78;;;15.30;75.40;;;;;;4976287;28;90051;-52
2023/04/11 03:44:15;;;;;;;99.97;53.67;;;15.30;75.30;;;;;;4979033;28;89852;-50
2023/04/11 03:46:41;;;;;;;99.47;53.65;;;15.30;75.30;;;;;;4981132;28;90367;-52
2023/04/11 03:49:07;;;;;;;99.78;53.83;;;15.20;75.30;;;;;;4983337;28;89098;-55
2023/04/11 03:51:32;;;;;;;100.85;53.60;;;15.20;75.10;;;;;;4980145;28;90200;-48
2023/04/11 03:53:58;;;;;;;98.88;53.53;;;15.20;75.30;;;;;;4977183;28;89609;-48
2023/04/11 03:56:24;;;;;;;98.93;53.15;;;15.20;76.00;;;;;;4982095;28;90398;-49
2023/04/11 03:58:50;;;;;;;99.15;53.33;;;15.20;75.30;;;;;;4979294;28;89581;-52
2023/04/11 04:01:15;;;;;;;100.57;53.97;;;15.20;75.10;;;;;;4973354;28;93501;-51
2023/04/11 04:03:41;;;;;;;99.28;53.63;;;15.20;75.20;;;;;;4948671;28;90923;-50
2023/04/11 04:06:07;;;;;;;101.47;53.92;;;15.20;74.80;;;;;;4971340;28;94508;-51
2023/04/11 04:08:32;;;;;;;100.75;53.90;;;15.20;75.00;;;;;;4979090;28;90752;-47
2023/04/11 04:10:58;;;;;;;98.20;54.08;;;15.20;75.00;;;;;;4958941;28;89886;-51
2023/04/11 04:13:24;;;;;;;101.78;53.72;;;15.20;75.10;;;;;;4980111;28;89584;-52
2023/04/11 04:15:50;;;;;;;98.97;53.38;;;15.20;75.00;;;;;;4976882;28;91994;-50
2023/04/11 04:18:16;;;;;;;99.90;53.33;;;15.20;75.10;;;;;;4977851;28;90344;-50
2023/04/11 04:20:41;;;;;;;99.53;53.28;;;15.10;74.90;;;;;;4975733;28;89820;-52
2023/04/11 04:23:07;;;;;;;102.30;53.85;;;15.10;74.90;;;;;;4983104;28;89042;-49
2023/04/11 04:25:33;;;;;;;101.13;53.65;;;15.10;74.90;;;;;;4979772;28;90749;-51
2023/04/11 04:27:59;;;;;;;98.60;54.15;;;15.10;74.90;;;;;;4980059;28;90442;-48
2023/04/11 04:30:27;;;;;;;99.22;54.53;;;15.10;74.90;;;;;;4981160;28;89613;-48
2023/04/11 04:32:57;;;;;;;98.15;53.72;;;15.10;74.90;;;;;;4971832;28;94052;-51
2023/04/11 04:35:24;;;;;;;100.97;53.80;;;15.10;75.00;;;;;;4975232;28;90458;-50
2023/04/11 04:37:49;;;;;;;107.28;54.28;;;15.10;74.80;;;;;;4980979;28;89855;-52
2023/04/11 04:40:19;;;;;;;98.72;53.83;;;15.10;74.90;;;;;;4977903;28;89594;-49
2023/04/11 04:42:48;;;;;;;97.40;53.47;;;15.10;75.00;;;;;;4975979;28;88661;-50
2023/04/11 04:45:15;;;;;;;98.05;53.45;;;15.00;75.00;;;;;;4978261;28;89531;-49
2023/04/11 04:47:40;;;;;;;100.18;53.28;;;15.00;75.00;;;;;;4976659;28;90110;-50
2023/04/11 04:50:07;;;;;;;97.63;53.65;;;15.00;74.80;;;;;;4976493;28;90434;-50
2023/04/11 04:52:33;;;;;;;101.93;54.22;;;15.00;74.90;;;;;;4977515;28;89813;-49
2023/04/11 04:54:59;;;;;;;101.53;54.22;;;15.00;75.00;;;;;;4980438;28;90079;-51
2023/04/11 04:57:30;;;;;;;101.03;53.83;;;15.00;75.20;;;;;;4979184;28;90583;-49
2023/04/11 04:59:57;;;;;;;100.47;56.63;;;15.00;75.50;;;;;;4976203;28;89932;-49
2023/04/11 05:02:26;;;;;;;98.15;53.53;;;15.00;75.60;;;;;;4974832;28;89571;-49
2023/04/11 05:04:53;;;;;;;104.00;53.95;;;15.00;75.80;;;;;;4980528;28;91060;-50
2023/04/11 05:07:19;;;;;;;98.70;53.28;;;15.00;76.10;;;;;;4978625;28;89674;-48
2023/04/11 05:09:46;;;;;;;99.38;53.75;;;14.90;76.30;;;;;;4971296;28;94778;-51
2023/04/11 05:12:13;;;;;;;99.57;54.33;;;14.90;76.30;;;;;;4968896;28;89448;-48
2023/04/11 05:14:39;;;;;;;98.78;53.92;;;14.90;76.30;;;;;;4978399;28;91258;-55
2023/04/11 05:17:05;;;;;;;101.95;53.63;;;14.90;76.30;;;;;;4975840;28;89779;-49
2023/04/11 05:19:31;;;;;;;98.80;53.58;;;14.90;76.30;;;;;;4981831;28;90391;-50
2023/04/11 05:21:56;;;;;;;98.03;53.97;;;15.00;76.20;;;;;;4980872;28;89600;-53
2023/04/11 05:24:22;;;;;;;98.00;53.50;;;14.90;76.50;;;;;;4977653;28;89957;-56
2023/04/11 05:26:48;;;;;;;99.15;54.10;;;14.90;76.60;;;;;;4980780;28;90980;-52
2023/04/11 05:29:14;;;;;;;98.40;53.67;;;15.00;76.40;;;;;;4979442;28;90522;-55
2023/04/11 05:31:40;;;;;;;98.53;53.30;;;14.90;76.40;;;;;;4972383;28;90526;-49
2023/04/11 05:34:06;;;;;;;98.47;53.45;;;14.90;76.50;;;;;;4968068;28;89578;-46
2023/04/11 05:36:31;;;;;;;108.05;54.25;;;14.90;76.90;;;;;;4969535;28;90943;-51
2023/04/11 05:38:57;;;;;;;101.70;53.95;;;14.90;76.50;;;;;;4964758;28;92335;-53
2023/04/11 05:41:23;;;;;;;109.40;54.65;;;14.90;76.50;;;;;;4978900;28;89792;-53
2023/04/11 05:43:49;;;;;;;109.68;55.28;;;14.90;76.60;;;;;;4969268;28;89910;-53
2023/04/11 05:46:16;;;;;;;108.90;54.47;;;14.90;76.80;;;;;;4978926;28;89284;-56
2023/04/11 05:48:41;;;;;;;107.72;54.72;;;14.90;77.10;;;;;;4976524;28;90839;-52
2023/04/11 05:51:07;;;;;;;100.97;54.45;;;14.80;77.30;;;;;;4980877;28;90190;-52
2023/04/11 05:53:33;;;;;;;102.13;54.80;;;14.90;77.30;;;;;;4983157;28;90858;-53
2023/04/11 05:56:00;;;;;;;101.15;54.85;;;14.90;77.30;;;;;;4980080;28;90372;-54
2023/04/11 05:58:28;;;;;;;102.32;54.08;;;14.90;77.20;;;;;;4983254;28;89456;-53
2023/04/11 06:00:54;;;;;;;107.10;54.53;;;14.90;77.20;;;;;;4987457;28;89368;-56
2023/04/11 06:03:20;;;;;;;107.65;54.45;;;14.90;77.40;;;;;;4980925;28;91276;-53
2023/04/11 06:05:46;;;;;;;103.22;54.22;;;14.90;77.10;;;;;;4978543;28;89756;-52
2023/04/11 06:08:12;;;;;;;103.80;54.10;;;14.80;77.10;;;;;;4984268;28;89217;-54
2023/04/11 06:10:37;;;;;;;104.20;54.63;;;14.80;77.10;;;;;;4981822;28;90050;-50
2023/04/11 06:13:03;;;;;;;105.93;54.00;;;14.80;76.90;;;;;;4983094;28;89918;-54
2023/04/11 06:15:29;;;;;;;104.53;54.10;;;14.80;77.00;;;;;;4984291;28;89636;-53
2023/04/11 06:17:54;;;;;;;104.07;54.55;;;14.80;77.10;;;;;;4982128;28;89498;-50
2023/04/11 06:20:23;;;;;;;102.13;53.90;;;14.80;77.10;;;;;;4982906;28;88751;-51
2023/04/11 06:22:52;;;;;;;98.72;53.58;;;14.80;77.10;;;;;;4980252;28;89361;-45
2023/04/11 06:25:19;;;;;;;104.88;54.00;;;14.80;77.10;;;;;;4980870;28;89909;-53
2023/04/11 06:27:45;;;;;;;101.28;54.22;;;14.80;77.00;;;;;;4983292;28;90889;-51
2023/04/11 06:30:11;;;;;;;102.88;54.50;;;14.80;77.10;;;;;;4975588;28;89726;-51
2023/04/11 06:32:36;;;;;;;100.80;54.15;;;14.80;77.00;;;;;;4978612;28;90429;-53
2023/04/11 06:35:02;;;;;;;101.63;53.88;;;14.80;76.90;;;;;;4981436;28;89724;-54
2023/04/11 06:37:28;;;;;;;100.78;53.70;;;14.80;77.00;;;;;;4980448;28;89353;-52
2023/04/11 06:39:54;;;;;;;100.03;54.22;;;14.80;77.10;;;;;;4982523;28;90060;-50
2023/04/11 06:42:20;;;;;;;101.10;53.60;;;14.80;77.00;;;;;;4978505;28;90286;-51
2023/04/11 06:44:47;;;;;;;100.07;53.85;;;14.80;77.20;;;;;;4983078;28;90022;-50
2023/04/11 06:47:13;;;;;;;98.70;54.22;;;14.80;77.00;;;;;;4979117;28;89732;-54
2023/04/11 06:49:39;;;;;;;101.50;54.25;;;14.80;76.80;;;;;;4982730;28;89451;-51
2023/04/11 06:52:05;;;;;;;98.05;53.63;;;14.80;77.00;;;;;;4984357;28;91887;-53
2023/04/11 06:54:30;;;;;;;99.07;53.78;;;14.80;76.80;;;;;;4981626;28;91076;-49
2023/04/11 06:56:56;;;;;;;100.15;54.47;;;14.80;76.80;;;;;;4983088;28;89523;-53
2023/04/11 06:59:22;;;;;;;100.15;53.67;;;14.80;76.80;;;;;;4984020;28;89833;-53
2023/04/11 07:01:49;;;;;;;101.10;53.17;;;14.80;76.70;;;;;;4981996;28;89974;-48
2023/04/11 07:04:15;;;;;;;100.85;54.08;;;14.80;76.50;;;;;;4983413;28;89531;-53
2023/04/11 07:06:41;;;;;;;100.65;54.13;;;14.80;76.60;;;;;;4982909;28;89463;-51
2023/04/11 07:09:08;;;;;;;101.88;54.00;;;14.80;76.90;;;;;;4984358;28;88499;-54
2023/04/11 07:11:34;;;;;;;102.60;54.35;;;14.80;76.80;;;;;;4979405;28;89767;-49
2023/04/11 07:14:01;;;;;;;97.07;54.28;;;14.80;76.70;;;;;;4983141;28;89632;-51
2023/04/11 07:16:27;;;;;;;101.45;54.42;;;14.80;76.80;;;;;;4979168;28;90462;-47
2023/04/11 07:18:53;;;;;;;99.20;53.88;;;14.80;76.80;;;;;;4985312;28;89573;-53
2023/04/11 07:21:19;;;;;;;99.28;54.38;;;14.80;76.70;;;;;;4981222;28;89691;-55
2023/04/11 07:23:45;;;;;;;101.88;53.67;;;14.80;76.80;;;;;;4984834;28;89592;-52
2023/04/11 07:26:15;;;;;;;99.97;53.75;;;14.80;77.30;;;;;;4981563;28;89407;-52
2023/04/11 07:28:42;;;;;;;98.32;53.78;;;14.80;76.80;;;;;;4979118;28;89968;-52
2023/04/11 07:31:12;;;;;;;99.03;53.33;;;14.80;76.80;;;;;;4983144;28;90066;-53
2023/04/11 07:33:41;;;;;;;97.93;52.80;;;14.80;76.60;;;;;;4983838;28;88999;-51
2023/04/11 07:36:07;;;;;;;99.03;54.28;;;14.80;76.60;;;;;;4986174;28;90423;-47
2023/04/11 07:38:33;;;;;;;100.35;54.03;;;14.80;77.60;;;;;;4981510;28;89440;-54
2023/04/11 07:41:01;;;;;;;102.03;54.33;;;14.80;77.00;;;;;;4967052;28;91331;-48
2023/04/11 07:43:27;;;;;;;100.40;54.00;;;14.80;76.80;;;;;;4980246;28;89847;-51
2023/04/11 07:45:54;;;;;;;97.40;53.58;;;14.80;76.50;;;;;;4987541;28;89734;-51
2023/04/11 07:48:24;;;;;;;99.70;54.42;;;14.80;76.60;;;;;;4979515;28;89918;-50
2023/04/11 07:50:51;;;;;;;99.10;54.40;;;14.80;76.70;;;;;;4980864;28;89658;-54
2023/04/11 07:53:16;;;;;;;97.72;53.97;;;14.80;76.30;;;;;;4983148;28;90923;-54
2023/04/11 07:55:42;;;;;;;97.82;53.53;;;14.80;76.60;;;;;;4979443;28;90764;-52
2023/04/11 07:58:08;;;;;;;100.05;54.10;;;14.80;76.10;;;;;;4986636;28;88990;-52
2023/04/11 08:00:34;;;;;;;100.75;54.25;;;14.80;76.60;;;;;;4963879;28;90106;-50
2023/04/11 08:03:10;;;;;;;99.72;53.47;;;14.80;76.60;;;;;;4979335;28;90451;-52
2023/04/11 08:05:36;;;;;;;99.38;53.85;;;14.80;76.60;;;;;;4983767;28;91004;-53
2023/04/11 08:08:05;;;;;;;97.60;53.83;;;14.80;76.10;;;;;;4980037;28;91257;-55
2023/04/11 08:10:31;;;;;;;99.57;53.90;;;14.80;76.60;;;;;;4980419;28;89640;-50
2023/04/11 08:12:57;;;;;;;97.85;53.65;;;14.90;76.50;;;;;;4983867;28;90349;-55
2023/04/11 08:15:23;;;;;;;98.60;53.97;;;14.80;76.30;;;;;;4981261;28;89515;-55
2023/04/11 08:17:50;;;;;;;99.75;53.83;;;14.90;76.30;;;;;;4982092;28;89609;-50
2023/04/11 08:20:17;;;;;;;102.72;53.90;;;14.90;76.10;;;;;;4980424;28;90193;-54
2023/04/11 08:22:45;;;;;;;96.85;53.65;;;14.90;76.10;;;;;;4981085;28;89102;-54
2023/04/11 08:25:12;;;;;;;100.93;54.00;;;14.90;76.00;;;;;;4986559;28;90599;-52
2023/04/11 08:27:38;;;;;;;98.13;53.95;;;14.90;75.90;;;;;;4980427;28;89775;-50
2023/04/11 08:30:07;;;;;;;100.13;54.03;;;14.90;76.20;;;;;;4980916;28;90531;-51
2023/04/11 08:32:36;;;;;;;98.88;53.35;;;14.90;76.20;;;;;;4980537;28;89750;-54
2023/04/11 08:35:02;;;;;;;100.75;54.50;;;14.90;75.90;;;;;;4980799;28;89893;-46
2023/04/11 08:37:28;;;;;;;101.10;53.97;;;14.90;76.20;;;;;;4983456;28;89655;-49
2023/04/11 08:39:55;;;;;;;98.28;53.67;;;14.90;76.20;;;;;;4983349;28;90039;-45
2023/04/11 08:42:29;;;;;;;98.97;53.95;;;14.90;75.70;;;;;;4965223;28;90490;-52
2023/04/11 08:45:00;;;;;;;97.32;53.72;;;14.90;75.70;;;;;;4982541;28;89633;-50
2023/04/11 08:47:25;;;;;;;99.83;53.83;;;14.90;75.70;;;;;;4977672;28;88736;-55
2023/04/11 08:49:52;;;;;;;99.28;54.10;;;14.90;75.80;;;;;;4981430;28;89653;-53
2023/04/11 08:52:19;;;;;;;98.63;53.70;;;14.90;75.60;;;;;;4985500;28;89588;-52
2023/04/11 08:54:50;;;;;;;101.70;53.85;;;14.90;75.30;;;;;;4980076;28;90432;-53
2023/04/11 08:57:24;;;;;;;99.70;53.88;;;14.90;75.10;;;;;;4975735;28;89713;-52
2023/04/11 08:59:51;;;;;;;98.10;53.85;;;14.90;75.60;;;;;;4980573;28;89584;-53
2023/04/11 09:02:16;;;;;;;98.90;53.72;;;15.00;75.60;;;;;;4980925;28;89831;-54
2023/04/11 09:04:43;;;;;;;100.63;54.13;;;15.00;75.30;;;;;;4980186;28;88966;-50
2023/04/11 09:07:10;;;;;;;99.97;54.47;;;15.00;75.30;;;;;;4982488;28;90146;-54
2023/04/11 09:09:38;;;;;;;97.82;54.10;;;15.00;75.80;;;;;;4978006;28;90973;-54
2023/04/11 09:12:04;;;;;;;100.70;54.03;;;15.00;75.30;;;;;;4979523;28;88774;-51
2023/04/11 09:14:30;;;;;;;98.20;53.38;;;15.00;75.50;;;;;;4979685;28;89430;-53
2023/04/11 09:17:03;;;;;;;98.55;53.85;;;15.00;75.30;;;;;;4979542;28;89792;-54
2023/04/11 09:19:31;;;;;;;100.70;53.75;;;15.10;75.80;;;;;;4981654;28;91350;-52
2023/04/11 09:22:04;;;;;;;97.70;53.88;;;15.10;75.50;;;;;;4981088;28;90336;-49
2023/04/11 09:24:31;;;;;;;102.90;54.22;;;15.10;75.20;;;;;;4979800;28;90169;-52
2023/04/11 09:27:18;;;;;;;98.05;53.83;;;15.20;75.70;;;;;;4964667;28;89820;-49
2023/04/11 09:29:46;;;;;;;99.30;53.63;;;15.20;75.40;;;;;;4980787;28;90154;-50
2023/04/11 09:32:28;;;;;;;100.03;53.30;;;15.20;75.10;;;;;;4979988;28;90527;-54
2023/04/11 09:35:09;;;;;;;100.78;53.60;;;15.20;75.70;;;;;;4978996;28;89559;-49
2023/04/11 09:37:49;;;;;;;98.82;54.33;;;15.20;75.00;;;;;;4983724;28;88666;-53
2023/04/11 09:40:17;;;;;;;100.90;54.58;;;15.30;75.30;;;;;;4982801;28;89949;-53
2023/04/11 09:42:44;;;;;;;99.70;54.13;;;15.30;74.60;;;;;;4980760;28;90020;-51
2023/04/11 09:45:20;;;;;;;101.32;54.05;;;15.20;74.70;;;;;;4980939;28;89959;-51
2023/04/11 09:47:48;;;;;;;98.95;54.50;;;15.30;74.10;;;;;;4977934;28;89979;-53
2023/04/11 09:50:14;;;;;;;98.90;53.92;;;15.20;73.50;;;;;;4979942;28;89863;-55
2023/04/11 09:52:41;;;;;;;100.28;54.22;;;15.20;74.60;;;;;;4982084;28;94167;-53
2023/04/11 09:55:12;;;;;;;98.93;53.88;;;15.30;74.90;;;;;;4979738;28;89203;-54
2023/04/11 09:57:50;;;;;;;98.00;53.50;;;15.30;74.30;;;;;;4978239;28;90273;-52
2023/04/11 10:00:23;;;;;;;99.43;53.42;;;15.30;74.20;;;;;;4980234;28;90779;-54
2023/04/11 10:02:53;;;;;;;100.90;53.90;;;15.30;74.60;;;;;;4964314;28;89810;-54
2023/04/11 10:05:20;;;;;;;98.33;54.10;;;15.40;74.70;;;;;;4979021;28;89488;-50
2023/04/11 10:07:53;;;;;;;99.80;54.08;;;15.40;74.40;;;;;;4982534;28;89872;-53
2023/04/11 10:10:21;;;;;;;100.78;53.80;;;15.40;74.40;;;;;;4981799;28;92968;-55
2023/04/11 10:12:47;;;;;;;100.75;54.20;;;15.40;74.40;;;;;;4979094;28;90950;-52
2023/04/11 10:15:13;;;;;;;99.65;53.70;;;15.40;75.20;;;;;;4978765;28;89665;-54
2023/04/11 10:17:39;;;;;;;101.82;54.38;;;15.50;74.30;;;;;;4978480;28;90227;-55
2023/04/11 10:20:43;;;;;;;99.55;54.13;;;15.50;74.50;;;;;;4981555;28;91196;-54
2023/04/11 10:23:10;;;;;;;98.45;53.67;;;15.50;74.30;;;;;;4984997;28;89844;-56
2023/04/11 10:26:01;;;;;;;99.97;53.90;;;15.50;74.20;;;;;;4985862;28;89451;-47
2023/04/11 10:28:32;;;;;;;99.00;54.00;;;15.50;74.30;;;;;;4988750;28;88780;-50
2023/04/11 10:31:07;;;;;;;100.90;54.15;;;15.50;74.40;;;;;;4983958;28;90014;-52
2023/04/11 10:33:34;;;;;;;98.88;54.15;;;15.60;74.40;;;;;;4980434;28;90518;-55
2023/04/11 10:36:08;;;;;;;98.95;53.92;;;15.50;74.40;;;;;;4985303;28;91490;-51
2023/04/11 10:38:40;;;;;;;100.57;54.13;;;15.60;74.10;;;;;;4981779;28;91078;-47
2023/04/11 10:41:17;;;;;;;100.50;53.95;;;15.60;74.40;;;;;;4983950;28;89565;-55
2023/04/11 10:43:44;;;;;;;99.63;53.80;;;15.60;74.30;;;;;;4983631;28;89541;-50
2023/04/11 10:46:20;;;;;;;99.45;54.10;;;15.60;74.40;;;;;;4968008;28;89298;-55
2023/04/11 10:49:00;;;;;;;100.05;53.85;;;15.60;74.30;;;;;;4982792;28;89357;-54
2023/04/11 10:51:27;;;;;;;99.38;54.30;;;15.60;74.30;;;;;;4984539;28;89374;-55
2023/04/11 10:53:54;;;;;;;99.40;54.05;;;15.60;74.10;;;;;;4985113;28;88870;-56
2023/04/11 10:56:41;;;;;;;102.32;54.38;;;15.60;74.00;;;;;;4985159;28;89791;-55
2023/04/11 10:59:30;;;;;;;98.95;54.38;;;15.70;74.10;;;;;;4983852;28;89967;-53
2023/04/11 11:01:56;;;;;;;99.30;54.05;;;15.70;74.20;;;;;;4983756;28;90475;-54
2023/04/11 11:04:32;;;;;;;99.28;53.95;;;15.70;74.10;;;;;;4988804;28;89778;-54
2023/04/11 11:07:00;;;;;;;99.82;53.92;;;15.70;74.20;;;;;;4985523;28;90924;-54
2023/04/11 11:09:29;;;;;;;100.55;53.97;;;15.70;73.80;;;;;;4963500;28;89634;-53
2023/04/11 11:12:13;;;;;;;103.13;54.58;;;15.70;73.90;;;;;;4983860;28;89610;-55
2023/04/11 11:14:45;;;;;;;99.65;54.08;;;15.70;73.80;;;;;;4983578;28;90353;-47
2023/04/11 11:17:15;;;;;;;100.68;54.45;;;15.70;73.70;;;;;;4984607;28;89576;-48
2023/04/11 11:19:45;;;;;;;99.47;54.47;;;15.70;73.50;;;;;;4982719;28;88890;-52
2023/04/11 11:22:15;;;;;;;99.78;53.97;;;15.70;73.50;;;;;;4985225;28;89514;-54
2023/04/11 11:24:40;;;;;;;98.50;53.88;;;15.80;73.40;;;;;;4965926;28;89834;-54
2023/04/11 11:27:23;;;;;;;99.70;53.83;;;15.80;73.20;;;;;;4983450;28;90464;-53
2023/04/11 11:29:49;;;;;;;100.75;54.28;;;15.80;73.30;;;;;;4980562;28;89531;-57
2023/04/11 11:32:28;;;;;;;97.85;53.53;;;15.80;73.50;;;;;;4981753;28;90240;-54
2023/04/11 11:34:56;;;;;;;101.47;54.63;;;15.80;73.30;;;;;;4985568;28;89960;-54
2023/04/11 11:37:22;;;;;;;100.10;53.40;;;15.80;73.40;;;;;;4986102;28;89437;-56
2023/04/11 11:39:48;;;;;;;99.45;53.88;;;15.80;73.10;;;;;;4981180;28;90766;-54
2023/04/11 11:42:15;;;;;;;100.32;53.85;;;15.80;73.40;;;;;;4981317;28;90018;-57
2023/04/11 11:44:40;;;;;;;99.72;54.58;;;15.80;73.20;;;;;;4983369;28;90066;-54
2023/04/11 11:47:13;;;;;;;103.80;54.00;;;15.80;72.90;;;;;;4983844;28;89466;-52
2023/04/11 11:49:46;;;;;;;99.45;54.35;;;15.80;73.30;;;;;;4984384;28;89476;-53
2023/04/11 11:52:33;;;;;;;99.68;53.90;;;15.80;73.30;;;;;;4980594;28;91588;-54
2023/04/11 11:55:04;;;;;;;101.20;54.72;;;15.90;73.40;;;;;;4981876;28;91824;-55
2023/04/11 11:57:30;;;;;;;;;;;15.90;73.00;;;;;;4984029;28;89790;-51
2023/04/11 11:59:59;;;;;;;99.53;54.33;;;15.90;73.10;;;;;;4984472;28;93361;-54
2023/04/11 12:02:26;;;;;;;99.30;54.15;;;15.90;73.40;;;;;;4976615;28;90569;-55
2023/04/11 12:04:59;;;;;;;99.45;53.75;;;15.90;73.50;;;;;;4986635;28;89471;-52
2023/04/11 12:07:25;;;;;;;99.35;53.92;;;15.90;73.30;;;;;;4977256;28;90005;-53
2023/04/11 12:10:08;;;;;;;98.57;53.88;;;15.90;73.30;;;;;;4978501;28;88598;-54
2023/04/11 12:12:37;;;;;;;101.03;54.35;;;15.90;73.10;;;;;;4956993;28;89601;-49
2023/04/11 12:15:09;;;;;;;98.30;54.03;;;15.90;73.30;;;;;;4979601;28;89751;-51
2023/04/11 12:17:35;;;;;;;100.13;53.92;;;15.90;73.60;;;;;;4978294;28;90327;-49
2023/04/11 12:20:05;;;;;;;99.40;53.80;;;15.90;73.50;;;;;;4982852;28;89357;-51
2023/04/11 12:22:30;;;;;;;98.97;53.88;;;15.90;73.50;;;;;;4966288;28;89779;-49
2023/04/11 12:25:05;;;;;;;99.55;54.15;;;15.90;73.40;;;;;;4987082;28;89331;-56
2023/04/11 12:27:35;;;;;;;99.80;54.03;;;15.80;72.70;;;;;;4963676;28;89699;-53